El Portal, Florida
Current Conditions -  °F | °C
As of 11:53 AM on Saturday 25 Oct 2014 (Local Time) from KMIA Reporting Station
Few Clouds Few Clouds  
Wind Chill: 81°   Ceiling: Unl
Heat Index: 81°   Visibility: 10mi
Dew Point: 56°   Wind: 8mph
Humidity: 42%   Direction: 320°NW
Pressure: 29.93"   Gusts: NA
Location:  25.852°N, 80.2071°W
Report Text: KMIA 251553Z 32007KT 10SM FEW035 27/13 A2993 RMK AO2 SLP136 T02720133
Loading
Personal Weather Stations






























Interactive Weather Map
Tropical Storm Tracking
New forecast layout! Learn more

10-Day Weather Forecast

Advertisements
Track Severe Weather on mobile